createdAt,value
2018-07-31T00:02:11.734Z,76.70
2018-07-31T00:04:40.026Z,76.50
2018-07-31T00:07:08.311Z,76.90
2018-07-31T00:12:04.708Z,77.30
2018-07-31T00:14:32.997Z,77.50
2018-07-31T00:17:01.273Z,77.10
2018-07-31T00:19:29.602Z,77.40
2018-07-31T00:21:57.893Z,77.70
2018-07-31T00:24:26.189Z,79.30
2018-07-31T00:26:54.556Z,81.10
2018-07-31T00:29:22.865Z,81.80
2018-07-31T00:31:51.200Z,82.90
2018-07-31T00:34:19.476Z,82.10
2018-07-31T00:36:47.836Z,82.70
2018-07-31T00:39:16.143Z,83.40
2018-07-31T00:41:44.489Z,82.10
2018-07-31T00:44:12.792Z,83.00
2018-07-31T00:46:41.014Z,83.00
2018-07-31T00:49:09.284Z,82.00
2018-07-31T00:51:37.599Z,82.10
2018-07-31T00:54:05.897Z,83.40
2018-07-31T00:56:34.156Z,83.40
2018-07-31T00:59:02.490Z,82.60
2018-07-31T01:01:30.867Z,83.60
2018-07-31T01:03:59.201Z,83.70
2018-07-31T01:06:34.831Z,84.80
2018-07-31T01:09:03.271Z,84.70
2018-07-31T01:11:31.629Z,85.10
2018-07-31T01:13:59.967Z,84.10
2018-07-31T01:16:28.271Z,84.40
2018-07-31T01:18:56.531Z,84.70
2018-07-31T01:21:24.845Z,84.60
2018-07-31T01:23:53.169Z,84.50
2018-07-31T01:26:21.450Z,84.80
2018-07-31T01:28:49.750Z,84.70
2018-07-31T01:31:18.016Z,84.80
2018-07-31T01:33:46.304Z,84.80
2018-07-31T01:36:14.536Z,84.90
2018-07-31T01:38:43.721Z,84.90
2018-07-31T01:41:12.040Z,85.20
2018-07-31T01:43:40.310Z,86.10
2018-07-31T01:46:08.631Z,85.90
2018-07-31T01:48:36.940Z,87.00
2018-07-31T01:51:05.302Z,88.10
2018-07-31T01:53:33.618Z,88.80
2018-07-31T01:56:01.900Z,88.50
2018-07-31T01:58:30.208Z,88.10
2018-07-31T02:00:58.484Z,88.70
2018-07-31T02:03:26.766Z,88.90
2018-07-31T02:05:55.126Z,88.90
2018-07-31T02:08:23.451Z,88.70
2018-07-31T02:10:51.766Z,88.80
2018-07-31T02:13:20.025Z,89.10
2018-07-31T02:15:48.253Z,89.20
2018-07-31T02:18:16.522Z,89.20
2018-07-31T02:24:16.333Z,89.10
2018-07-31T02:26:44.621Z,89.30
2018-07-31T02:29:12.918Z,89.30
2018-07-31T02:34:09.193Z,89.70
2018-07-31T02:36:37.547Z,89.50
2018-07-31T02:41:35.305Z,89.50
2018-07-31T02:44:03.618Z,89.40
2018-07-31T02:46:31.967Z,89.50
2018-07-31T02:49:00.386Z,89.60
2018-07-31T02:51:28.689Z,89.20
2018-07-31T02:53:56.951Z,89.30
2018-07-31T02:56:25.319Z,89.70
2018-07-31T02:58:53.625Z,90.30
2018-07-31T03:01:22.056Z,90.70
2018-07-31T03:03:50.347Z,90.90
2018-07-31T03:06:18.836Z,91.20
2018-07-31T03:08:47.094Z,91.40
2018-07-31T03:11:15.385Z,91.30
2018-07-31T03:13:43.767Z,91.30
2018-07-31T03:16:12.083Z,91.30
2018-07-31T03:18:40.421Z,91.10
2018-07-31T03:21:08.776Z,91.20
2018-07-31T03:23:37.080Z,91.10
2018-07-31T03:26:05.464Z,90.90
2018-07-31T03:28:33.763Z,90.90
2018-07-31T03:31:02.022Z,90.90
2018-07-31T03:33:30.342Z,91.30
2018-07-31T03:35:58.665Z,91.50
2018-07-31T03:38:26.980Z,91.80
2018-07-31T03:43:23.253Z,92.40
2018-07-31T03:45:51.609Z,92.60
2018-07-31T03:48:19.904Z,92.40
2018-07-31T03:50:48.219Z,92.20
2018-07-31T03:53:16.607Z,92.00
2018-07-31T03:55:44.893Z,91.90
2018-07-31T03:58:13.222Z,92.50
2018-07-31T04:03:09.559Z,93.00
2018-07-31T04:05:37.842Z,92.80
2018-07-31T04:08:06.096Z,92.90
2018-07-31T04:10:35.415Z,92.80
2018-07-31T04:13:03.836Z,92.90
2018-07-31T04:15:32.262Z,92.70
2018-07-31T04:18:00.561Z,93.20
2018-07-31T04:20:28.892Z,93.20
2018-07-31T04:22:57.272Z,93.00
2018-07-31T04:25:25.985Z,93.10
2018-07-31T04:27:54.666Z,93.40
2018-07-31T04:30:23.091Z,93.40
2018-07-31T04:32:51.485Z,93.70
2018-07-31T04:35:19.864Z,93.20
2018-07-31T04:37:48.182Z,93.40
2018-07-31T04:40:16.494Z,93.60
2018-07-31T04:42:44.787Z,93.90
2018-07-31T04:45:13.082Z,93.70
2018-07-31T04:47:41.411Z,93.50
2018-07-31T04:50:10.487Z,93.60
2018-07-31T04:52:39.063Z,93.80
2018-07-31T04:55:07.388Z,94.20
2018-07-31T04:57:35.726Z,94.30
2018-07-31T05:00:04.831Z,94.10
2018-07-31T05:02:33.210Z,93.70
2018-07-31T05:05:01.537Z,94.00
2018-07-31T05:07:29.836Z,94.80
2018-07-31T05:09:58.164Z,94.80
2018-07-31T05:12:26.403Z,94.70
2018-07-31T05:14:54.671Z,94.00
2018-07-31T05:17:23.000Z,93.80
2018-07-31T05:19:51.288Z,94.30
2018-07-31T05:22:19.546Z,93.60
2018-07-31T05:24:47.819Z,93.60
2018-07-31T05:27:16.092Z,93.80
2018-07-31T05:29:44.954Z,93.60
2018-07-31T05:32:13.246Z,93.50
2018-07-31T05:34:41.756Z,93.40
2018-07-31T05:37:10.052Z,93.00
2018-07-31T05:39:38.356Z,92.70
2018-07-31T05:42:06.614Z,92.70
2018-07-31T05:44:34.948Z,92.60
2018-07-31T05:47:03.286Z,92.80
2018-07-31T05:49:31.559Z,92.50
2018-07-31T05:51:59.949Z,92.30
2018-07-31T05:54:28.058Z,92.50
2018-07-31T05:56:56.369Z,91.90
2018-07-31T05:59:24.677Z,91.70
2018-07-31T06:01:53.039Z,91.60
2018-07-31T06:04:21.326Z,91.70
2018-07-31T06:06:49.557Z,91.60
2018-07-31T06:09:17.850Z,91.70
2018-07-31T06:14:14.252Z,90.90
2018-07-31T06:16:43.364Z,90.90
2018-07-31T06:19:11.680Z,90.50
2018-07-31T06:21:39.975Z,90.70
2018-07-31T06:24:08.247Z,90.60
2018-07-31T06:26:36.564Z,90.50
2018-07-31T06:29:04.837Z,90.40
2018-07-31T06:31:33.145Z,90.30
2018-07-31T06:34:01.405Z,90.00
2018-07-31T06:36:29.728Z,89.50
2018-07-31T06:38:58.031Z,88.50
2018-07-31T06:41:26.320Z,87.50
2018-07-31T06:43:54.627Z,86.10
2018-07-31T06:46:22.885Z,85.10
2018-07-31T06:48:51.172Z,84.50
2018-07-31T06:53:47.493Z,81.80
2018-07-31T06:56:15.806Z,80.40
2018-07-31T06:58:44.143Z,79.10
2018-07-31T07:01:12.454Z,78.90
2018-07-31T07:03:40.816Z,77.30
2018-07-31T07:06:09.102Z,74.70
2018-07-31T07:08:37.379Z,72.40
2018-07-31T07:11:05.741Z,72.30
2018-07-31T07:13:34.092Z,72.50
2018-07-31T07:16:02.461Z,71.50
2018-07-31T07:18:31.493Z,69.60
2018-07-31T07:20:59.791Z,69.90
2018-07-31T07:23:28.112Z,68.10
2018-07-31T07:25:56.490Z,66.90
2018-07-31T07:28:24.865Z,67.00
2018-07-31T07:30:53.124Z,66.80
2018-07-31T07:33:21.670Z,66.40
2018-07-31T07:35:50.182Z,66.90
2018-07-31T07:38:18.586Z,66.90
2018-07-31T07:40:46.907Z,66.60
2018-07-31T07:43:15.231Z,65.90
2018-07-31T07:45:43.572Z,66.00
2018-07-31T07:48:11.954Z,65.90
2018-07-31T07:50:40.261Z,65.20
2018-07-31T07:53:08.617Z,65.30
2018-07-31T07:55:37.022Z,64.00
2018-07-31T07:58:05.587Z,63.80
2018-07-31T08:00:33.880Z,61.50
2018-07-31T08:03:02.201Z,61.20
2018-07-31T08:05:30.536Z,60.40
2018-07-31T08:07:59.204Z,60.00
2018-07-31T08:10:27.455Z,59.80
2018-07-31T08:12:56.156Z,60.00
2018-07-31T08:15:24.453Z,59.80
2018-07-31T08:17:52.788Z,59.50
2018-07-31T08:20:21.098Z,59.20
2018-07-31T08:22:49.429Z,59.00
2018-07-31T08:25:17.735Z,58.80
2018-07-31T08:27:46.122Z,59.20
2018-07-31T08:30:14.391Z,60.00
2018-07-31T08:32:42.774Z,59.70
2018-07-31T08:35:11.051Z,60.00
2018-07-31T08:37:39.261Z,59.80
2018-07-31T08:40:07.611Z,59.40
2018-07-31T08:42:36.017Z,58.60
2018-07-31T08:45:04.539Z,58.50
2018-07-31T08:47:32.866Z,58.90
2018-07-31T08:50:01.184Z,58.50
2018-07-31T08:52:30.579Z,57.70
2018-07-31T08:54:58.860Z,57.60
2018-07-31T08:57:27.219Z,57.50
2018-07-31T08:59:55.586Z,57.50
2018-07-31T09:02:23.967Z,57.10
2018-07-31T09:04:52.341Z,57.30
2018-07-31T09:07:20.618Z,57.30
2018-07-31T09:09:48.937Z,57.40
2018-07-31T09:12:17.226Z,56.70
2018-07-31T09:14:45.503Z,56.50
2018-07-31T09:17:13.762Z,55.90
2018-07-31T09:19:42.196Z,56.20
2018-07-31T09:22:10.543Z,56.20
2018-07-31T09:24:38.931Z,56.10
2018-07-31T09:27:07.142Z,55.60
2018-07-31T09:29:35.474Z,55.30
2018-07-31T09:32:03.859Z,55.90
2018-07-31T09:34:36.430Z,54.40
2018-07-31T09:37:04.708Z,53.00
2018-07-31T09:39:33.045Z,52.00
2018-07-31T09:42:01.303Z,50.60
2018-07-31T09:44:29.552Z,50.70
2018-07-31T09:46:57.879Z,50.80
2018-07-31T09:49:26.124Z,49.70
2018-07-31T09:51:54.387Z,49.20
2018-07-31T09:55:25.222Z,49.60
2018-07-31T09:57:53.570Z,50.20
2018-07-31T10:00:27.178Z,48.60
2018-07-31T10:02:55.650Z,47.90
2018-07-31T10:05:24.364Z,47.20
2018-07-31T10:07:52.838Z,47.10
2018-07-31T10:10:21.182Z,47.50
2018-07-31T10:12:49.433Z,46.80
2018-07-31T10:15:17.824Z,47.80
2018-07-31T10:17:46.124Z,46.70
2018-07-31T10:20:14.448Z,45.90
2018-07-31T10:22:42.759Z,45.80
2018-07-31T10:25:11.100Z,45.50
2018-07-31T10:27:39.418Z,46.20
2018-07-31T10:30:07.935Z,44.90
2018-07-31T10:32:36.236Z,44.30
2018-07-31T10:35:04.577Z,43.50
2018-07-31T10:37:32.985Z,41.20
2018-07-31T10:40:01.246Z,40.60
2018-07-31T10:42:29.828Z,39.90
2018-07-31T10:44:58.186Z,40.70
2018-07-31T10:47:26.648Z,40.30
2018-07-31T10:49:54.987Z,41.30
2018-07-31T10:52:23.391Z,40.60
2018-07-31T10:54:51.841Z,41.40
2018-07-31T10:57:20.211Z,41.70
2018-07-31T10:59:48.600Z,40.60
2018-07-31T11:02:16.783Z,39.90
2018-07-31T11:04:45.181Z,40.80
2018-07-31T11:07:13.442Z,40.90
2018-07-31T11:09:41.819Z,39.60
2018-07-31T11:12:10.199Z,39.70
2018-07-31T11:14:38.594Z,39.80
2018-07-31T11:17:06.981Z,39.70
2018-07-31T11:19:35.306Z,40.60
2018-07-31T11:22:03.672Z,40.20
2018-07-31T11:24:31.978Z,39.90
2018-07-31T11:27:00.786Z,39.60
2018-07-31T11:29:29.109Z,39.50
2018-07-31T11:31:57.401Z,39.30
2018-07-31T11:34:25.686Z,39.70
2018-07-31T11:36:54.111Z,39.20
2018-07-31T11:39:22.399Z,39.40
2018-07-31T11:41:50.655Z,39.30
2018-07-31T11:44:18.914Z,39.10
2018-07-31T11:46:47.295Z,39.50
2018-07-31T11:49:15.597Z,38.90
2018-07-31T11:51:44.043Z,39.90
2018-07-31T11:54:12.428Z,40.00
2018-07-31T11:56:40.844Z,39.20
2018-07-31T11:59:09.068Z,40.80
2018-07-31T12:01:37.501Z,40.30
2018-07-31T12:04:05.703Z,38.50
2018-07-31T12:06:34.073Z,39.20
2018-07-31T12:09:02.453Z,39.80
2018-07-31T12:11:30.879Z,40.10
2018-07-31T12:13:59.227Z,39.70
2018-07-31T12:16:27.464Z,39.70
2018-07-31T12:18:55.758Z,40.20
2018-07-31T12:21:24.013Z,40.20
2018-07-31T12:23:52.310Z,40.60
2018-07-31T12:26:20.677Z,38.90
2018-07-31T12:28:48.967Z,39.00
2018-07-31T12:31:17.235Z,39.40
2018-07-31T12:33:45.542Z,39.00
2018-07-31T12:36:13.790Z,38.00
2018-07-31T12:38:42.062Z,38.10
2018-07-31T12:41:10.448Z,39.30
2018-07-31T12:43:38.765Z,38.90
2018-07-31T12:46:07.110Z,37.70
2018-07-31T12:48:35.516Z,37.70
2018-07-31T12:51:03.833Z,37.20
2018-07-31T12:53:32.179Z,37.10
2018-07-31T12:56:00.484Z,36.90
2018-07-31T12:58:28.849Z,35.90
2018-07-31T13:00:57.109Z,35.30
2018-07-31T13:03:25.349Z,36.50
2018-07-31T13:05:53.652Z,35.00
2018-07-31T13:08:21.962Z,36.20
2018-07-31T13:10:50.225Z,36.10
2018-07-31T13:13:18.467Z,36.30
2018-07-31T13:15:46.856Z,36.80
2018-07-31T13:18:15.148Z,35.70
2018-07-31T13:20:43.400Z,36.20
2018-07-31T13:23:11.683Z,36.90
2018-07-31T13:25:40.042Z,36.80
2018-07-31T13:28:08.444Z,36.50
2018-07-31T13:30:36.802Z,36.30
2018-07-31T13:33:05.209Z,37.60
2018-07-31T13:35:33.450Z,36.60
2018-07-31T13:38:01.810Z,36.60
2018-07-31T13:40:30.130Z,36.70
2018-07-31T13:42:58.377Z,37.30
2018-07-31T13:45:26.612Z,36.80
2018-07-31T13:47:54.986Z,36.70
2018-07-31T13:50:23.322Z,36.50
2018-07-31T13:52:51.994Z,36.30
2018-07-31T13:55:20.246Z,36.00
2018-07-31T13:57:48.553Z,36.30
2018-07-31T14:00:16.891Z,36.20
2018-07-31T14:02:45.166Z,36.40
2018-07-31T14:05:13.481Z,36.40
2018-07-31T14:07:41.850Z,35.80
2018-07-31T14:12:38.242Z,36.50
2018-07-31T14:15:06.554Z,35.90
2018-07-31T14:17:34.860Z,36.10
2018-07-31T14:20:03.167Z,35.90
2018-07-31T14:22:31.580Z,36.20
2018-07-31T14:24:59.918Z,36.40
2018-07-31T14:27:28.177Z,36.70
2018-07-31T14:29:56.468Z,36.80
2018-07-31T14:32:24.706Z,37.40
2018-07-31T14:34:53.131Z,37.30
2018-07-31T14:37:21.488Z,37.40
2018-07-31T14:39:49.882Z,37.70
2018-07-31T14:42:18.205Z,36.40
2018-07-31T14:44:46.501Z,36.50
2018-07-31T14:47:14.877Z,37.00
2018-07-31T14:49:43.249Z,36.80
2018-07-31T14:52:11.510Z,36.40
2018-07-31T14:54:39.817Z,36.80
2018-07-31T14:57:08.112Z,36.60
2018-07-31T14:59:36.489Z,36.50
2018-07-31T15:02:04.859Z,36.80
2018-07-31T15:04:33.182Z,36.60
2018-07-31T15:07:01.575Z,37.50
2018-07-31T15:09:29.915Z,35.90
2018-07-31T15:11:58.193Z,35.80
2018-07-31T15:14:26.511Z,35.60
2018-07-31T15:16:55.159Z,34.70
2018-07-31T15:19:23.482Z,36.90
2018-07-31T15:21:51.871Z,35.50
2018-07-31T15:24:20.252Z,36.50
2018-07-31T15:26:48.519Z,35.70
2018-07-31T15:29:16.875Z,34.40
2018-07-31T15:31:45.176Z,35.00
2018-07-31T15:34:13.533Z,33.00
2018-07-31T15:41:40.635Z,30.80
2018-07-31T15:44:09.091Z,31.50
2018-07-31T15:49:05.799Z,36.20
2018-07-31T15:51:35.264Z,35.10
2018-07-31T15:54:03.655Z,36.80
2018-07-31T15:56:32.026Z,35.50
2018-07-31T15:59:00.328Z,35.40
2018-07-31T16:01:29.419Z,36.50
2018-07-31T16:03:57.996Z,37.60
2018-07-31T16:06:26.321Z,39.40
2018-07-31T16:08:54.937Z,39.40
2018-07-31T16:11:23.217Z,40.50
2018-07-31T16:13:51.889Z,40.60
2018-07-31T16:16:20.252Z,42.30
2018-07-31T16:18:48.549Z,43.30
2018-07-31T16:21:16.907Z,43.70
2018-07-31T16:23:45.299Z,43.60
2018-07-31T16:26:13.518Z,44.70
2018-07-31T16:28:41.834Z,44.50
2018-07-31T16:31:10.125Z,43.10
2018-07-31T16:33:38.414Z,45.50
2018-07-31T16:36:06.694Z,46.30
2018-07-31T16:38:35.011Z,47.40
2018-07-31T16:41:03.430Z,46.10
2018-07-31T16:46:04.387Z,48.90
2018-07-31T16:48:32.606Z,48.40
2018-07-31T16:51:00.862Z,48.00
2018-07-31T16:53:29.094Z,49.60
2018-07-31T16:55:57.386Z,48.00
2018-07-31T16:58:25.868Z,48.90
2018-07-31T17:00:54.204Z,49.50
2018-07-31T17:03:22.466Z,48.10
2018-07-31T17:05:50.792Z,47.10
2018-07-31T17:08:19.111Z,49.20
2018-07-31T17:10:47.455Z,49.00
2018-07-31T17:13:15.752Z,50.00
2018-07-31T17:15:44.028Z,49.00
2018-07-31T17:18:12.319Z,50.60
2018-07-31T17:20:40.660Z,50.80
2018-07-31T17:23:09.022Z,51.50
2018-07-31T17:30:33.301Z,52.80
2018-07-31T17:33:01.665Z,52.60
2018-07-31T17:35:29.969Z,54.00
2018-07-31T17:37:58.270Z,53.70
2018-07-31T17:40:26.635Z,53.00
2018-07-31T17:42:54.972Z,54.10
2018-07-31T17:45:23.302Z,54.00
2018-07-31T17:47:51.699Z,54.40
2018-07-31T17:50:20.161Z,55.20
2018-07-31T17:52:48.467Z,54.60
2018-07-31T17:55:16.793Z,55.80
2018-07-31T17:57:45.040Z,55.70
2018-07-31T18:00:13.362Z,55.60
2018-07-31T18:02:41.832Z,56.10
2018-07-31T18:07:38.130Z,56.70
2018-07-31T18:10:06.424Z,57.30
2018-07-31T18:12:34.669Z,57.50
2018-07-31T18:15:03.092Z,57.70
2018-07-31T18:19:00.540Z,58.20
2018-07-31T18:21:28.876Z,58.60
2018-07-31T18:23:57.272Z,58.80
2018-07-31T18:26:25.611Z,59.00
2018-07-31T18:28:53.865Z,58.90
2018-07-31T18:31:22.176Z,59.20
2018-07-31T18:33:50.524Z,59.60
2018-07-31T18:36:20.502Z,59.80
2018-07-31T18:38:49.091Z,60.90
2018-07-31T18:41:17.763Z,60.80
2018-07-31T18:46:14.522Z,63.20
2018-07-31T18:48:43.403Z,64.40
2018-07-31T18:51:12.672Z,65.40
2018-07-31T18:56:09.014Z,66.70
2018-07-31T18:58:37.385Z,66.70
2018-07-31T19:01:05.748Z,67.50
2018-07-31T19:03:34.033Z,67.30
2018-07-31T19:06:02.355Z,67.80
2018-07-31T19:08:30.676Z,68.80
2018-07-31T19:10:58.911Z,69.40
2018-07-31T19:13:27.430Z,70.30
2018-07-31T19:15:55.792Z,70.30
2018-07-31T19:18:24.085Z,71.00
2018-07-31T19:20:52.406Z,71.60
2018-07-31T19:23:20.835Z,72.40
2018-07-31T19:25:49.194Z,72.80
2018-07-31T19:28:17.517Z,73.20
2018-07-31T19:30:45.931Z,73.10
2018-07-31T19:33:14.308Z,73.20
2018-07-31T19:35:43.168Z,74.60
2018-07-31T19:38:11.537Z,75.20
2018-07-31T19:40:39.858Z,76.00
2018-07-31T19:43:08.135Z,76.50
2018-07-31T19:45:36.437Z,76.20
2018-07-31T19:48:04.808Z,76.40
2018-07-31T19:50:33.169Z,77.10
2018-07-31T19:53:01.543Z,78.20
2018-07-31T19:55:29.906Z,78.80
2018-07-31T19:57:59.418Z,79.30
2018-07-31T20:00:34.146Z,79.60
2018-07-31T20:03:02.479Z,79.90
2018-07-31T20:05:30.898Z,80.60
2018-07-31T20:08:00.481Z,80.80
2018-07-31T20:10:35.939Z,80.70
2018-07-31T20:13:04.471Z,80.70
2018-07-31T20:15:33.465Z,81.30
2018-07-31T20:18:02.978Z,81.90
2018-07-31T20:20:31.387Z,82.30
2018-07-31T20:22:59.767Z,82.40
2018-07-31T20:27:56.124Z,83.20
2018-07-31T20:30:24.506Z,84.20
2018-07-31T20:32:52.927Z,84.00
2018-07-31T20:35:21.225Z,84.10
2018-07-31T20:37:49.464Z,84.50
2018-07-31T20:40:17.861Z,85.60
2018-07-31T20:42:46.306Z,86.10
2018-07-31T20:45:14.726Z,87.50
2018-07-31T20:47:43.213Z,88.60
2018-07-31T20:50:11.586Z,88.30
2018-07-31T20:52:39.918Z,88.30
2018-07-31T20:55:08.358Z,88.60
2018-07-31T20:57:36.894Z,88.70
2018-07-31T21:00:05.707Z,88.10
2018-07-31T21:02:34.213Z,88.30
2018-07-31T21:05:02.682Z,89.30
2018-07-31T21:07:38.098Z,89.70
2018-07-31T21:10:06.701Z,89.60
2018-07-31T21:12:35.364Z,89.30
2018-07-31T21:15:03.703Z,90.00
2018-07-31T21:17:32.024Z,89.50
2018-07-31T21:20:00.789Z,89.70
2018-07-31T21:22:32.100Z,89.20
2018-07-31T21:25:00.823Z,89.60
2018-07-31T21:27:31.717Z,89.90
2018-07-31T21:30:02.448Z,90.00
2018-07-31T21:32:31.165Z,90.00
2018-07-31T21:35:00.532Z,90.00
2018-07-31T21:37:28.994Z,89.90
2018-07-31T21:39:58.007Z,89.40
2018-07-31T21:42:26.688Z,89.40
2018-07-31T21:44:58.705Z,89.30
2018-07-31T21:47:29.034Z,89.60
2018-07-31T21:49:57.510Z,88.40
2018-07-31T21:52:25.859Z,88.20
2018-07-31T21:54:54.328Z,89.10
2018-07-31T21:57:22.604Z,90.40
2018-07-31T21:59:51.316Z,90.10
2018-07-31T22:02:19.635Z,90.40
2018-07-31T22:04:47.973Z,90.80
2018-07-31T22:07:16.281Z,90.50
2018-07-31T22:09:45.420Z,90.60
2018-07-31T22:12:13.836Z,90.60
2018-07-31T22:14:42.440Z,91.00
2018-07-31T22:17:10.795Z,91.60
2018-07-31T22:19:39.413Z,91.20
2018-07-31T22:22:07.722Z,91.60
2018-07-31T22:24:36.039Z,91.40
2018-07-31T22:27:04.379Z,91.30
2018-07-31T22:29:32.760Z,91.50
2018-07-31T22:32:01.076Z,91.60
2018-07-31T22:34:29.362Z,91.60
2018-07-31T22:36:57.652Z,91.70
2018-07-31T22:39:25.930Z,92.10
2018-07-31T22:41:54.249Z,92.00
2018-07-31T22:44:22.518Z,92.10
2018-07-31T22:46:50.806Z,92.20
2018-07-31T22:49:19.207Z,92.20
2018-07-31T22:51:47.503Z,92.20
2018-07-31T22:54:15.888Z,92.40
2018-07-31T22:59:12.139Z,92.80
2018-07-31T23:01:40.386Z,92.70
2018-07-31T23:04:08.673Z,92.90
2018-07-31T23:06:36.994Z,92.70
2018-07-31T23:09:07.722Z,92.70
2018-07-31T23:11:36.277Z,93.20
2018-07-31T23:14:04.523Z,92.80
2018-07-31T23:16:32.830Z,92.60
2018-07-31T23:19:01.055Z,92.70
2018-07-31T23:21:29.375Z,93.00
2018-07-31T23:23:57.767Z,92.80
2018-07-31T23:26:26.082Z,93.00
2018-07-31T23:28:54.343Z,92.70
2018-07-31T23:31:22.708Z,92.70
2018-07-31T23:33:50.961Z,93.10
2018-07-31T23:36:19.242Z,93.40
2018-07-31T23:38:47.549Z,93.50
2018-07-31T23:41:15.894Z,93.10
2018-07-31T23:43:44.138Z,93.40
2018-07-31T23:46:12.434Z,93.60
2018-07-31T23:51:08.767Z,93.10
2018-07-31T23:53:37.121Z,93.50
2018-07-31T23:56:05.418Z,93.90
2018-07-31T23:58:33.636Z,93.70
